Airfield :
LOGIN :

Register | Disclaimer

   EN    FR    IT 

 










Legend :    VFR   Marginal VFR   IFR   Intensive IFR   Very Intensive IFR
Visi :
Ceiling :
>= 8 km
>= 3000ft
5 to 8 km
1000 to 3000 ft
1500m to 5 km
500 to 1000 ft
800 to 1500m
200 to 500 ft
< 800m
< 200 ft
Symbols :   Thunderstorms  Fog  Heavy snow  Heavy precipitations  Wind > 20 kt
SIGMETs :     Misc.  Thunderstorms  Icing  Turbulence  Mountain Waves  Volcanic Ashes






- Airport Elevation : 267 ft


EGDR - Culdrose Navy

CURRENT METAR :
  • 161323Z 18004KT 9999 VCSH FEW014 BKN160 BKN200 09/05 Q0998 NOSIG RMK BLU BLU

EXPIRED METARs :
  • 161250Z 19006KT 9999 FEW018 BKN160 BKN200 09/04 Q0998 BLU NOSIG RMK BLU BLU
  • 161222Z 21005KT 9999 FEW020 BKN160 BKN200 09/05 Q0998 BLU NOSIG RMK BLU BLU
  • 161150Z 22006KT 9999 FEW022 BKN160 09/04 Q0998 BLU NOSIG RMK BLU BLU
  • 161124Z 22006KT 9999 FEW010 SCT160 09/04 Q0999 NOSIG RMK BLU BLU
  • 161050Z 21006KT 9999 FEW010 09/04 Q0999 NOSIG RMK BLU BLU
  • 161025Z 21007KT 9999 FEW010 09/04 Q0999 NOSIG RMK BLU BLU

TAF TAF EGDR
Valid from the 16 at 12:00 until the 16 at 21:00 UTC


161021Z 1612/1621 VRB04KT 9999 FEW025
PROB30
TEMPO 1612/1618 8000 -SHRA SCT022



MET'MAP, your aeronautical weather chart ! - Copyright ORBIFLY December 2007 - Disclaimer

ORBIFLY MET'MAP TEAM :

Programming & Development : Alexandra Zaïnal
Concept & original design : Baudouin d'Aumeries
Assistance for programming : Marc-Olivier Méhu
Technical & hardware support : Manuel Goepfert

Contact : metmap@orbifly.com




SOURCES & CREDITS :

   NOAA